Terminal Aerodrome Forecast
Issued by NWS

Home | Current Version | Previous Version | Text Only | Print | Product List | Glossary On
Versions: 1 2 3 4 5 6 7 8 9 10 11 12 13 14 15 16 17 18
000
FTUS41 KBGM 071730
TAFITH
TAF
KITH 071730Z 0718/0818 20008KT P6SM SCT035 BKN050
      TEMPO 0718/0720 BKN030
     FM072000 22008KT P6SM SCT050
     FM080400 24008KT 5SM SHRA OVC020
     FM080800 32008KT 5SM BR OVC008
     FM081400 32008KT P6SM SCT030=

USA.gov is the U.S. government's official web portal to all federal, state and local government web resources and services.